Time,TemperatureF,DewpointF,PressureIn,WindDirection,WindDirectionDegrees,WindSpeedMPH,WindSpeedGustMPH,Humidity,HourlyPrecipIn,Conditions,Clouds,dailyrainin,SoftwareType,DateUTC
2013-02-08 00:03:00,69.6,64.0,29.83,WNW,293,11.0,-999.0,81,-99.99,,,0.00,weatherlink.com 1.10,2013-02-08 05:03:00,
2013-02-08 00:18:00,69.3,63.0,29.83,WNW,293,5.0,-999.0,81,-99.99,,,0.00,weatherlink.com 1.10,2013-02-08 05:18:00,
2013-02-08 00:33:00,69.1,63.0,29.83,WNW,287,10.0,-999.0,82,-99.99,,,0.00,weatherlink.com 1.10,2013-02-08 05:33:00,
2013-02-08 00:48:00,68.9,63.0,29.82,WNW,293,6.0,-999.0,82,-99.99,,,0.00,weatherlink.com 1.10,2013-02-08 05:48:00,
2013-02-08 01:03:00,68.8,64.0,29.83,WNW,300,11.0,-999.0,83,-99.99,,,0.00,weatherlink.com 1.10,2013-02-08 06:03:00,
2013-02-08 01:18:00,68.5,63.0,29.83,West,281,7.0,-999.0,83,-99.99,,,0.00,weatherlink.com 1.10,2013-02-08 06:18:00,
2013-02-08 01:33:00,68.2,63.0,29.83,NW,306,6.0,-999.0,84,-99.99,,,0.00,weatherlink.com 1.10,2013-02-08 06:33:00,
2013-02-08 01:48:00,67.9,63.0,29.83,West,279,4.0,-999.0,85,-99.99,,,0.00,weatherlink.com 1.10,2013-02-08 06:48:00,
2013-02-08 02:03:00,67.7,63.0,29.83,WNW,287,7.0,-999.0,85,-99.99,,,0.00,weatherlink.com 1.10,2013-02-08 07:03:00,
2013-02-08 02:18:00,67.6,63.0,29.82,NNW,328,6.0,-999.0,86,-99.99,,,0.00,weatherlink.com 1.10,2013-02-08 07:18:00,
2013-02-08 02:33:00,67.4,63.0,29.82,WNW,290,5.0,-999.0,86,-99.99,,,0.00,weatherlink.com 1.10,2013-02-08 07:33:00,
2013-02-08 02:48:00,67.4,64.0,29.82,NW,326,7.0,-999.0,87,-99.99,,,0.00,weatherlink.com 1.10,2013-02-08 07:48:00,
2013-02-08 03:03:00,67.6,64.0,29.82,West,259,6.0,-999.0,87,-99.99,,,0.00,weatherlink.com 1.10,2013-02-08 08:03:00,
2013-02-08 03:18:00,67.7,64.0,29.83,NW,306,6.0,-999.0,87,-99.99,,,0.00,weatherlink.com 1.10,2013-02-08 08:18:00,
2013-02-08 03:33:00,68.1,64.0,29.83,NW,309,8.0,-999.0,87,-99.99,,,0.00,weatherlink.com 1.10,2013-02-08 08:33:00,
2013-02-08 03:48:00,68.5,64.0,29.83,NW,316,10.0,-999.0,86,-99.99,,,0.00,weatherlink.com 1.10,2013-02-08 08:48:00,
2013-02-08 04:03:00,68.5,64.0,29.83,WNW,287,14.0,-999.0,86,-99.99,,,0.00,weatherlink.com 1.10,2013-02-08 09:03:00,
2013-02-08 04:18:00,68.3,64.0,29.83,SW,232,1.0,-999.0,86,-99.99,,,0.00,weatherlink.com 1.10,2013-02-08 09:18:00,
2013-02-08 04:33:00,68.2,64.0,29.84,NNW,334,8.0,-999.0,86,-99.99,,,0.00,weatherlink.com 1.10,2013-02-08 09:33:00,
2013-02-08 04:48:00,67.9,64.0,29.84,NNW,331,4.0,-999.0,86,-99.99,,,0.00,weatherlink.com 1.10,2013-02-08 09:48:00,
2013-02-08 05:03:00,-999.0,-99.9,29.85,North,-999,-999.0,-999.0,-999,-99.99,,,0.00,weatherlink.com 1.10,2013-02-08 10:03:00,
2013-02-08 05:18:00,-999.0,-99.9,29.85,North,-999,-999.0,-999.0,-999,-99.99,,,0.00,weatherlink.com 1.10,2013-02-08 10:18:00,
2013-02-08 05:33:00,-999.0,-99.9,29.85,North,-999,-999.0,-999.0,-999,-99.99,,,0.00,weatherlink.com 1.10,2013-02-08 10:33:00,
2013-02-08 05:49:00,-999.0,-99.9,29.86,North,-999,-999.0,-999.0,-999,-99.99,,,0.00,weatherlink.com 1.10,2013-02-08 10:49:00,
2013-02-08 06:04:00,-999.0,-99.9,29.87,North,-999,-999.0,-999.0,-999,-99.99,,,0.00,weatherlink.com 1.10,2013-02-08 11:04:00,
2013-02-08 06:19:00,-999.0,-99.9,29.88,North,-999,-999.0,-999.0,-999,-99.99,,,0.00,weatherlink.com 1.10,2013-02-08 11:19:00,
2013-02-08 06:34:00,-999.0,-99.9,29.89,North,-999,-999.0,-999.0,-999,-99.99,,,0.00,weatherlink.com 1.10,2013-02-08 11:34:00,
2013-02-08 06:49:00,-999.0,-99.9,29.89,North,-999,-999.0,-999.0,-999,-99.99,,,0.00,weatherlink.com 1.10,2013-02-08 11:49:00,
2013-02-08 07:04:00,-999.0,-99.9,29.90,North,-999,-999.0,-999.0,-999,-99.99,,,0.00,weatherlink.com 1.10,2013-02-08 12:04:00,
2013-02-08 07:19:00,-999.0,-99.9,29.91,North,-999,-999.0,-999.0,-999,-99.99,,,0.00,weatherlink.com 1.10,2013-02-08 12:19:00,
2013-02-08 07:34:00,-999.0,-99.9,29.91,North,-999,-999.0,-999.0,-999,-99.99,,,0.00,weatherlink.com 1.10,2013-02-08 12:34:00,
2013-02-08 07:50:00,-999.0,-99.9,29.92,North,-999,-999.0,-999.0,-999,-99.99,,,0.00,weatherlink.com 1.10,2013-02-08 12:50:00,
2013-02-08 08:06:00,-999.0,-99.9,29.92,North,-999,-999.0,-999.0,-999,-99.99,,,0.00,weatherlink.com 1.10,2013-02-08 13:06:00,
2013-02-08 08:24:00,-999.0,-99.9,29.93,North,-999,-999.0,-999.0,-999,-99.99,,,0.00,weatherlink.com 1.10,2013-02-08 13:24:00,
2013-02-08 08:42:00,-999.0,-99.9,29.93,North,-999,-999.0,-999.0,-999,-99.99,,,0.00,weatherlink.com 1.10,2013-02-08 13:42:00,
2013-02-08 08:58:00,-999.0,-99.9,29.94,North,-999,-999.0,-999.0,-999,-99.99,,,0.00,weatherlink.com 1.10,2013-02-08 13:58:00,
2013-02-08 09:16:00,-999.0,-99.9,29.95,North,-999,-999.0,-999.0,-999,-99.99,,,0.00,weatherlink.com 1.10,2013-02-08 14:16:00,
2013-02-08 09:32:00,-999.0,-99.9,29.95,North,-999,-999.0,-999.0,-999,-99.99,,,0.00,weatherlink.com 1.10,2013-02-08 14:32:00,
2013-02-08 09:49:00,-999.0,-99.9,29.96,North,-999,-999.0,-999.0,-999,-99.99,,,0.00,weatherlink.com 1.10,2013-02-08 14:49:00,
2013-02-08 10:06:00,-999.0,-99.9,29.95,North,-999,-999.0,-999.0,-999,-99.99,,,0.00,weatherlink.com 1.10,2013-02-08 15:06:00,
2013-02-08 10:22:00,-999.0,-99.9,29.96,North,-999,-999.0,-999.0,-999,-99.99,,,0.00,weatherlink.com 1.10,2013-02-08 15:22:00,
2013-02-08 10:39:00,-999.0,-99.9,29.96,North,-999,-999.0,-999.0,-999,-99.99,,,0.00,weatherlink.com 1.10,2013-02-08 15:39:00,
2013-02-08 10:56:00,-999.0,-99.9,29.96,North,-999,-999.0,-999.0,-999,-99.99,,,0.00,weatherlink.com 1.10,2013-02-08 15:56:00,
2013-02-08 11:12:00,-999.0,-99.9,29.96,North,-999,-999.0,-999.0,-999,-99.99,,,0.00,weatherlink.com 1.10,2013-02-08 16:12:00,
2013-02-08 11:30:00,-999.0,-99.9,29.96,North,-999,-999.0,-999.0,-999,-99.99,,,0.00,weatherlink.com 1.10,2013-02-08 16:30:00,
2013-02-08 11:47:00,-999.0,-99.9,29.95,North,-999,-999.0,-999.0,-999,-99.99,,,0.00,weatherlink.com 1.10,2013-02-08 16:47:00,
2013-02-08 12:03:00,-999.0,-99.9,29.94,North,-999,-999.0,-999.0,-999,-99.99,,,0.00,weatherlink.com 1.10,2013-02-08 17:03:00,
2013-02-08 12:20:00,-999.0,-99.9,29.94,North,-999,-999.0,-999.0,-999,-99.99,,,0.00,weatherlink.com 1.10,2013-02-08 17:20:00,
2013-02-08 12:36:00,-999.0,-99.9,29.93,North,-999,-999.0,-999.0,-999,-99.99,,,0.00,weatherlink.com 1.10,2013-02-08 17:36:00,
2013-02-08 12:54:00,-999.0,-99.9,29.93,North,-999,-999.0,-999.0,-999,-99.99,,,0.00,weatherlink.com 1.10,2013-02-08 17:54:00,
2013-02-08 13:10:00,-999.0,-99.9,29.92,North,-999,-999.0,-999.0,-999,-99.99,,,0.00,weatherlink.com 1.10,2013-02-08 18:10:00,
2013-02-08 13:26:00,-999.0,-99.9,29.92,North,-999,-999.0,-999.0,-999,-99.99,,,0.00,weatherlink.com 1.10,2013-02-08 18:26:00,
2013-02-08 13:44:00,-999.0,-99.9,29.91,North,-999,-999.0,-999.0,-999,-99.99,,,0.00,weatherlink.com 1.10,2013-02-08 18:44:00,
2013-02-08 14:00:00,-999.0,-99.9,29.91,North,-999,-999.0,-999.0,-999,-99.99,,,0.00,weatherlink.com 1.10,2013-02-08 19:00:00,
2013-02-08 14:17:00,-999.0,-99.9,29.91,North,-999,-999.0,-999.0,-999,-99.99,,,0.00,weatherlink.com 1.10,2013-02-08 19:17:00,
2013-02-08 14:33:00,-999.0,-99.9,29.91,North,-999,-999.0,-999.0,-999,-99.99,,,0.00,weatherlink.com 1.10,2013-02-08 19:33:00,
2013-02-08 14:50:00,-999.0,-99.9,29.90,North,-999,-999.0,-999.0,-999,-99.99,,,0.00,weatherlink.com 1.10,2013-02-08 19:50:00,
2013-02-08 15:07:00,76.3,57.0,29.90,NNW,343,10.0,-999.0,51,-99.99,,,0.00,weatherlink.com 1.10,2013-02-08 20:07:00,
2013-02-08 15:23:00,77.1,57.0,29.90,NNW,341,2.0,-999.0,50,-99.99,,,0.00,weatherlink.com 1.10,2013-02-08 20:23:00,
2013-02-08 15:39:00,77.1,58.0,29.90,WNW,288,8.0,-999.0,51,-99.99,,,0.00,weatherlink.com 1.10,2013-02-08 20:39:00,
2013-02-08 15:57:00,77.2,57.0,29.90,NNW,329,10.0,-999.0,50,-99.99,,,0.00,weatherlink.com 1.10,2013-02-08 20:57:00,
2013-02-08 16:12:00,78.0,57.0,29.90,NNW,339,13.0,-999.0,49,-99.99,,,0.00,weatherlink.com 1.10,2013-02-08 21:12:00,
2013-02-08 16:29:00,77.4,57.0,29.90,NNW,327,1.0,-999.0,50,-99.99,,,0.00,weatherlink.com 1.10,2013-02-08 21:29:00,
2013-02-08 16:46:00,77.4,57.0,29.90,West,271,5.0,-999.0,49,-99.99,,,0.00,weatherlink.com 1.10,2013-02-08 21:46:00,
2013-02-08 17:02:00,77.5,57.0,29.90,NNW,344,5.0,-999.0,49,-99.99,,,0.00,weatherlink.com 1.10,2013-02-08 22:02:00,
2013-02-08 17:19:00,77.0,56.0,29.90,NNW,332,8.0,-999.0,49,-99.99,,,0.00,weatherlink.com 1.10,2013-02-08 22:19:00,
2013-02-08 17:34:00,76.4,56.0,29.91,NNE,33,7.0,-999.0,49,-99.99,,,0.00,weatherlink.com 1.10,2013-02-08 22:34:00,
2013-02-08 17:49:00,76.0,56.0,29.91,NW,317,9.0,-999.0,50,-99.99,,,0.00,weatherlink.com 1.10,2013-02-08 22:49:00,
2013-02-08 18:04:00,75.0,56.0,29.92,NNW,336,7.0,-999.0,51,-99.99,,,0.00,weatherlink.com 1.10,2013-02-08 23:04:00,
2013-02-08 18:19:00,74.2,55.0,29.93,WNW,286,1.0,-999.0,51,-99.99,,,0.00,weatherlink.com 1.10,2013-02-08 23:19:00,
2013-02-08 18:34:00,73.5,56.0,29.93,NNE,15,5.0,-999.0,54,-99.99,,,0.00,weatherlink.com 1.10,2013-02-08 23:34:00,
2013-02-08 18:49:00,72.6,56.0,29.94,NNW,346,7.0,-999.0,57,-99.99,,,0.00,weatherlink.com 1.10,2013-02-08 23:49:00,
2013-02-08 19:04:00,71.9,56.0,29.94,North,360,1.0,-999.0,58,-99.99,,,0.00,weatherlink.com 1.10,2013-02-09 00:04:00,
2013-02-08 19:19:00,71.2,56.0,29.95,NNW,338,4.0,-999.0,60,-99.99,,,0.00,weatherlink.com 1.10,2013-02-09 00:19:00,
2013-02-08 19:34:00,70.4,56.0,29.95,North,355,4.0,-999.0,61,-99.99,,,0.00,weatherlink.com 1.10,2013-02-09 00:34:00,
2013-02-08 19:49:00,70.0,57.0,29.95,NW,310,3.0,-999.0,63,-99.99,,,0.00,weatherlink.com 1.10,2013-02-09 00:49:00,
2013-02-08 20:06:00,69.3,57.0,29.96,NNW,333,6.0,-999.0,64,-99.99,,,0.00,weatherlink.com 1.10,2013-02-09 01:06:00,
2013-02-08 20:22:00,68.7,57.0,29.97,North,355,8.0,-999.0,66,-99.99,,,0.00,weatherlink.com 1.10,2013-02-09 01:22:00,
2013-02-08 20:38:00,67.9,57.0,29.98,WNW,300,5.0,-999.0,68,-99.99,,,0.00,weatherlink.com 1.10,2013-02-09 01:38:00,
2013-02-08 20:54:00,66.8,57.0,29.98,NNW,338,3.0,-999.0,70,-99.99,,,0.00,weatherlink.com 1.10,2013-02-09 01:54:00,
2013-02-08 21:12:00,65.8,57.0,30.00,NW,320,13.0,-999.0,72,-99.99,,,0.00,weatherlink.com 1.10,2013-02-09 02:12:00,
2013-02-08 21:28:00,64.7,56.0,30.00,ENE,57,0.0,-999.0,74,-99.99,,,0.00,weatherlink.com 1.10,2013-02-09 02:28:00,
2013-02-08 21:44:00,64.0,56.0,30.01,NNE,17,4.0,-999.0,76,-99.99,,,0.00,weatherlink.com 1.10,2013-02-09 02:44:00,
2013-02-08 22:00:00,63.3,56.0,30.01,ENE,64,1.0,-999.0,78,-99.99,,,0.00,weatherlink.com 1.10,2013-02-09 03:00:00,
2013-02-08 22:18:00,62.4,56.0,30.02,NW,309,5.0,-999.0,80,-99.99,,,0.00,weatherlink.com 1.10,2013-02-09 03:18:00,
2013-02-08 22:34:00,61.8,56.0,30.02,WNW,303,0.0,-999.0,82,-99.99,,,0.00,weatherlink.com 1.10,2013-02-09 03:34:00,
2013-02-08 22:51:00,61.3,56.0,30.03,WNW,289,2.0,-999.0,83,-99.99,,,0.00,weatherlink.com 1.10,2013-02-09 03:51:00,
2013-02-08 23:06:00,61.0,56.0,30.03,NW,313,1.0,-999.0,84,-99.99,,,0.00,weatherlink.com 1.10,2013-02-09 04:06:00,
2013-02-08 23:21:00,60.7,56.0,30.03,NNW,331,0.0,-999.0,85,-99.99,,,0.00,weatherlink.com 1.10,2013-02-09 04:21:00,
2013-02-08 23:36:00,60.5,56.0,30.03,NNW,331,0.0,-999.0,86,-99.99,,,0.00,weatherlink.com 1.10,2013-02-09 04:36:00,
2013-02-08 23:51:00,60.3,56.0,30.03,NNW,328,3.0,-999.0,86,-99.99,,,0.00,weatherlink.com 1.10,2013-02-09 04:51:00,